SBOSBO IST / LTFM
Speedbird OnlineSpeedbird Online IST / LTFM

Istanbul Airport
23:34 15.2°C

Location Istanbul, Turkey
Latitude: 41.275278
Longitude: 28.751944
Web Airport Website | Wikipedia
Altitude 99 Meter / 325 Feet
Distance 2,451 KM / 1,523 Miles
from London.
Time Zone UTC +3 hours (Europe/Istanbul)
Codes IATA: IST
ICAO: LTFM
Currency £1 equals TRY 20.00
Runways
RunwayLength (m)Surface
16L3750Asphalt
16R3750Asphalt
17L4100Asphalt
17R4100Asphalt
183060Concrete
34L3750Asphalt
34R3750Asphalt
35L4100Asphalt
35R4100Asphalt
363060Concrete
Radio
TypeDescriptionFrequency
ClearanceIstanbul Clearance Delivery121.7
GROUNDIstanbul Ground121.75
TOWERIstanbul Tower131.1
Live ATC
METAR LTFM 241950Z 17006KT CAVOK 14/09 Q1021 NOSIG RMK RWY17L 18009KT RWY34L 17006KT RWY16R 16009KT RWY36 18006KT RWY18 17009KT
TAF TAF LTFM 241640Z 2418/2524 18009KT CAVOK BECMG 2509/2512 07010KT BECMG 2518/2521 20009KT
Weather As Of 24 Sep 2022 23:34
Description Broken clouds
Wind 10 km/h from South-West (208°)
Cloud Cover 64%
Precipitation Rain: none, Snow: none
Sunrise 06:54
Sunset 19:00
Lounges IGA Lounge , International
Rotations During the last 90 days there were
215 flights from LHR
215 flights to LHR


© 2017-2022 Speedbird Online